createdAt,value
2022-08-22T00:00:01.133Z,18.98
2022-08-22T00:01:28.937Z,18.99
2022-08-22T00:02:44.018Z,19.17
2022-08-22T00:02:47.979Z,18.85
2022-08-22T00:03:01.451Z,19.00
2022-08-22T00:03:03.386Z,19.08
2022-08-22T00:03:03.564Z,19.18
2022-08-22T00:03:08.817Z,19.04
2022-08-22T00:04:49.251Z,18.97
2022-08-22T00:06:01.366Z,18.95
2022-08-22T00:07:09.149Z,18.95
2022-08-22T00:08:26.476Z,18.94
2022-08-22T00:09:55.720Z,18.93
2022-08-22T00:11:17.953Z,18.93
2022-08-22T00:12:54.392Z,18.92
2022-08-22T00:14:05.355Z,18.92
2022-08-22T00:15:42.409Z,18.91
2022-08-22T00:16:49.089Z,18.91
2022-08-22T00:18:18.386Z,18.90
2022-08-22T00:19:27.499Z,18.88
2022-08-22T00:25:36.934Z,18.86
2022-08-22T00:26:47.588Z,18.85
2022-08-22T00:28:28.058Z,18.82
2022-08-22T00:29:39.743Z,18.80
2022-08-22T00:31:17.577Z,18.79
2022-08-22T00:32:35.468Z,18.77
2022-08-22T00:34:06.940Z,18.76
2022-08-22T00:35:26.840Z,18.76
2022-08-22T00:37:12.122Z,18.74
2022-08-22T00:38:19.567Z,18.74
2022-08-22T00:39:32.584Z,18.74
2022-08-22T00:40:59.959Z,18.75
2022-08-22T00:42:08.217Z,18.76
2022-08-22T00:43:10.462Z,18.76
2022-08-22T00:44:30.762Z,18.76
2022-08-22T00:45:54.078Z,18.77
2022-08-22T00:47:22.503Z,18.77
2022-08-22T00:48:39.118Z,18.77
2022-08-22T00:50:07.739Z,18.76
2022-08-22T00:51:12.208Z,18.76
2022-08-22T00:52:19.786Z,18.76
2022-08-22T00:53:49.293Z,18.76
2022-08-22T00:55:12.398Z,18.76
2022-08-22T00:56:51.077Z,18.77
2022-08-22T00:58:18.761Z,18.78
2022-08-22T00:59:48.612Z,18.79
2022-08-22T01:00:59.946Z,18.80
2022-08-22T01:02:32.956Z,18.79
2022-08-22T01:03:49.454Z,18.80
2022-08-22T01:05:14.630Z,18.82
2022-08-22T01:06:31.322Z,18.82
2022-08-22T01:08:05.110Z,18.81
2022-08-22T01:09:37.480Z,18.83
2022-08-22T01:10:42.528Z,18.82
2022-08-22T01:12:33.043Z,18.81
2022-08-22T01:13:52.817Z,18.81
2022-08-22T01:15:09.658Z,18.78
2022-08-22T01:16:32.835Z,18.77
2022-08-22T01:18:11.968Z,18.76
2022-08-22T01:19:46.901Z,18.76
2022-08-22T01:21:20.676Z,18.78
2022-08-22T01:22:56.914Z,18.76
2022-08-22T01:25:02.662Z,18.75
2022-08-22T01:26:21.345Z,18.72
2022-08-22T01:27:37.967Z,18.72
2022-08-22T01:29:18.025Z,18.71
2022-08-22T01:30:56.876Z,18.71
2022-08-22T01:32:16.952Z,18.71
2022-08-22T01:33:30.284Z,18.70
2022-08-22T01:34:56.875Z,18.70
2022-08-22T01:36:35.319Z,18.69
2022-08-22T01:38:14.675Z,18.67
2022-08-22T01:39:41.115Z,18.65
2022-08-22T01:41:22.756Z,18.63
2022-08-22T01:42:44.654Z,18.61
2022-08-22T01:44:16.156Z,18.60
2022-08-22T01:45:42.375Z,18.58
2022-08-22T01:47:13.120Z,18.56
2022-08-22T01:48:45.984Z,18.55
2022-08-22T01:50:23.445Z,18.54
2022-08-22T01:51:50.345Z,18.53
2022-08-22T01:53:06.032Z,18.51
2022-08-22T01:54:24.886Z,18.51
2022-08-22T01:55:37.121Z,18.50
2022-08-22T01:56:44.710Z,18.49
2022-08-22T01:57:55.667Z,18.50
2022-08-22T01:59:27.600Z,18.49
2022-08-22T02:01:08.636Z,18.49
2022-08-22T02:02:42.885Z,18.49
2022-08-22T02:03:58.093Z,18.48
2022-08-22T02:05:20.776Z,18.47
2022-08-22T02:06:45.891Z,18.47
2022-08-22T02:08:05.548Z,18.48
2022-08-22T02:09:38.376Z,18.49
2022-08-22T02:11:10.637Z,18.50
2022-08-22T02:12:27.296Z,18.50
2022-08-22T02:13:49.136Z,18.50
2022-08-22T02:15:32.061Z,18.49
2022-08-22T02:16:40.792Z,18.48
2022-08-22T02:18:07.347Z,18.47
2022-08-22T02:19:14.691Z,18.46
2022-08-22T02:20:36.486Z,18.45
2022-08-22T02:21:47.772Z,18.45
2022-08-22T02:23:04.099Z,18.45
2022-08-22T02:24:22.237Z,18.44
2022-08-22T02:25:32.641Z,18.44
2022-08-22T02:27:03.442Z,18.42
2022-08-22T02:28:23.407Z,18.41
2022-08-22T02:29:48.738Z,18.41
2022-08-22T02:31:00.731Z,18.40
2022-08-22T02:32:30.172Z,18.40
2022-08-22T02:33:46.765Z,18.37
2022-08-22T02:35:07.134Z,18.37
2022-08-22T02:36:22.737Z,18.36
2022-08-22T02:37:37.365Z,18.35
2022-08-22T02:38:57.306Z,18.35
2022-08-22T02:40:12.824Z,18.34
2022-08-22T02:41:37.341Z,18.33
2022-08-22T02:43:10.189Z,18.32
2022-08-22T02:44:31.553Z,18.32
2022-08-22T02:45:45.073Z,18.31
2022-08-22T02:47:12.653Z,18.29
2022-08-22T02:48:34.044Z,18.27
2022-08-22T02:49:53.909Z,18.26
2022-08-22T02:51:10.506Z,18.26
2022-08-22T02:52:18.124Z,18.25
2022-08-22T02:53:48.550Z,18.25
2022-08-22T02:55:31.597Z,18.24
2022-08-22T02:56:41.144Z,18.23
2022-08-22T02:58:00.927Z,18.23
2022-08-22T02:59:30.357Z,18.23
2022-08-22T03:00:48.948Z,18.24
2022-08-22T03:01:51.890Z,18.24
2022-08-22T03:02:59.255Z,18.24
2022-08-22T03:04:31.569Z,18.24
2022-08-22T03:05:36.146Z,18.27
2022-08-22T03:06:45.810Z,18.28
2022-08-22T03:08:09.032Z,18.28
2022-08-22T03:09:16.578Z,18.27
2022-08-22T03:10:36.429Z,18.29
2022-08-22T03:11:45.339Z,18.30
2022-08-22T03:13:24.654Z,18.30
2022-08-22T03:14:40.632Z,18.28
2022-08-22T03:16:03.833Z,18.27
2022-08-22T03:17:19.721Z,18.26
2022-08-22T03:18:42.884Z,18.27
2022-08-22T03:19:52.117Z,18.28
2022-08-22T03:21:32.100Z,18.29
2022-08-22T03:22:59.983Z,18.28
2022-08-22T03:24:09.735Z,18.30
2022-08-22T03:25:33.279Z,18.31
2022-08-22T03:27:01.853Z,18.32
2022-08-22T03:28:11.793Z,18.33
2022-08-22T03:29:22.754Z,18.33
2022-08-22T03:30:59.433Z,18.33
2022-08-22T03:32:23.394Z,18.33
2022-08-22T03:33:30.025Z,18.33
2022-08-22T03:34:31.917Z,18.31
2022-08-22T03:35:55.150Z,18.29
2022-08-22T03:37:20.385Z,18.26
2022-08-22T03:38:40.490Z,18.25
2022-08-22T03:39:47.918Z,18.23
2022-08-22T03:41:27.359Z,18.23
2022-08-22T03:42:34.999Z,18.21
2022-08-22T03:44:04.364Z,18.20
2022-08-22T03:45:38.503Z,18.20
2022-08-22T03:46:46.105Z,18.18
2022-08-22T03:48:25.447Z,18.15
2022-08-22T03:49:59.627Z,18.10
2022-08-22T03:51:28.952Z,18.09
2022-08-22T03:53:15.328Z,18.06
2022-08-22T03:54:38.763Z,18.04
2022-08-22T03:56:08.285Z,18.02
2022-08-22T03:57:24.649Z,18.00
2022-08-22T03:58:36.786Z,17.98
2022-08-22T04:00:04.480Z,17.98
2022-08-22T04:01:19.661Z,17.99
2022-08-22T04:02:55.113Z,18.00
2022-08-22T04:04:02.661Z,18.00
2022-08-22T04:05:22.925Z,17.99
2022-08-22T04:06:42.016Z,18.00
2022-08-22T04:08:13.963Z,18.02
2022-08-22T04:09:43.489Z,18.01
2022-08-22T04:11:16.737Z,17.99
2022-08-22T04:12:49.051Z,17.98
2022-08-22T04:14:17.724Z,17.98
2022-08-22T04:15:36.663Z,17.99
2022-08-22T04:17:15.499Z,17.99
2022-08-22T04:18:33.390Z,17.98
2022-08-22T04:20:29.587Z,17.97
2022-08-22T04:22:25.913Z,17.97
2022-08-22T04:23:41.014Z,17.97
2022-08-22T04:25:07.750Z,17.98
2022-08-22T04:26:29.499Z,17.97
2022-08-22T04:27:47.273Z,17.97
2022-08-22T04:28:57.169Z,17.93
2022-08-22T04:30:17.719Z,17.90
2022-08-22T04:31:29.833Z,17.88
2022-08-22T04:32:42.161Z,17.86
2022-08-22T04:34:07.086Z,17.85
2022-08-22T04:35:31.291Z,17.84
2022-08-22T04:36:45.873Z,17.81
2022-08-22T04:38:09.084Z,17.81
2022-08-22T04:39:45.213Z,17.79
2022-08-22T04:41:02.534Z,17.77
2022-08-22T04:42:32.259Z,17.77
2022-08-22T04:43:41.154Z,17.76
2022-08-22T04:45:24.086Z,17.75
2022-08-22T04:46:51.665Z,17.74
2022-08-22T04:48:09.281Z,17.73
2022-08-22T04:49:16.274Z,17.72
2022-08-22T04:50:44.368Z,17.73
2022-08-22T04:52:29.579Z,17.74
2022-08-22T04:53:53.855Z,17.74
2022-08-22T04:55:24.876Z,17.76
2022-08-22T04:56:45.249Z,17.78
2022-08-22T04:58:08.335Z,17.82
2022-08-22T04:59:17.858Z,17.83
2022-08-22T05:00:20.369Z,17.81
2022-08-22T05:01:46.643Z,17.79
2022-08-22T05:02:51.805Z,17.78
2022-08-22T05:04:05.874Z,17.78
2022-08-22T05:05:38.970Z,17.77
2022-08-22T05:06:48.116Z,17.74
2022-08-22T05:07:56.890Z,17.73
2022-08-22T05:09:04.548Z,17.72
2022-08-22T05:10:13.418Z,17.69
2022-08-22T05:11:21.889Z,17.68
2022-08-22T05:12:33.821Z,17.68
2022-08-22T05:13:52.226Z,17.69
2022-08-22T05:15:00.879Z,17.70
2022-08-22T05:16:12.380Z,17.69
2022-08-22T05:17:21.673Z,17.68
2022-08-22T05:18:29.765Z,17.68
2022-08-22T05:19:37.322Z,17.69
2022-08-22T05:20:48.048Z,17.69
2022-08-22T05:21:51.781Z,17.69
2022-08-22T05:23:02.598Z,17.68
2022-08-22T05:24:14.354Z,17.68
2022-08-22T05:25:26.548Z,17.69
2022-08-22T05:26:36.482Z,17.69
2022-08-22T05:27:49.339Z,17.69
2022-08-22T05:29:03.340Z,17.68
2022-08-22T05:30:15.787Z,17.66
2022-08-22T05:31:31.954Z,17.65
2022-08-22T05:32:53.048Z,17.64
2022-08-22T05:34:03.726Z,17.63
2022-08-22T05:35:09.462Z,17.64
2022-08-22T05:36:11.023Z,17.63
2022-08-22T05:37:22.957Z,17.65
2022-08-22T05:38:36.256Z,17.65
2022-08-22T05:39:47.094Z,17.64
2022-08-22T05:40:58.661Z,17.64
2022-08-22T05:42:03.775Z,17.64
2022-08-22T05:43:11.612Z,17.64
2022-08-22T05:44:21.539Z,17.65
2022-08-22T05:45:27.134Z,17.67
2022-08-22T05:46:55.425Z,17.70
2022-08-22T05:48:17.233Z,17.75
2022-08-22T05:49:48.161Z,17.80
2022-08-22T05:51:01.024Z,17.85
2022-08-22T05:52:16.373Z,17.89
2022-08-22T05:53:30.595Z,17.92
2022-08-22T05:54:41.043Z,17.95
2022-08-22T05:55:57.676Z,17.97
2022-08-22T05:57:23.916Z,17.98
2022-08-22T05:58:43.523Z,17.98
2022-08-22T05:59:51.985Z,18.00
2022-08-22T06:01:07.526Z,18.01
2022-08-22T06:02:20.783Z,18.02
2022-08-22T06:03:41.577Z,18.02
2022-08-22T06:04:54.831Z,18.04
2022-08-22T06:06:07.996Z,18.05
2022-08-22T06:07:25.898Z,18.08
2022-08-22T06:08:37.925Z,18.09
2022-08-22T06:09:48.453Z,18.11
2022-08-22T06:10:56.279Z,18.13
2022-08-22T06:12:06.258Z,18.17
2022-08-22T06:13:32.213Z,18.20
2022-08-22T06:14:50.498Z,18.25
2022-08-22T06:16:02.845Z,18.30
2022-08-22T06:17:15.869Z,18.37
2022-08-22T06:18:24.943Z,18.42
2022-08-22T06:19:27.454Z,18.49
2022-08-22T06:20:57.619Z,18.54
2022-08-22T06:22:01.845Z,18.57
2022-08-22T06:23:07.338Z,18.57
2022-08-22T06:24:21.147Z,18.57
2022-08-22T06:25:38.977Z,18.59
2022-08-22T06:26:48.881Z,18.60
2022-08-22T06:27:52.876Z,18.59
2022-08-22T06:28:59.723Z,18.59
2022-08-22T06:30:04.656Z,18.58
2022-08-22T06:31:13.545Z,18.57
2022-08-22T06:32:44.483Z,18.56
2022-08-22T06:34:10.734Z,18.57
2022-08-22T06:35:23.488Z,18.58
2022-08-22T06:36:33.961Z,18.61
2022-08-22T06:37:41.130Z,18.68
2022-08-22T06:39:02.460Z,18.73
2022-08-22T06:40:08.762Z,18.81
2022-08-22T06:41:11.024Z,18.88
2022-08-22T06:42:18.346Z,18.94
2022-08-22T06:43:23.727Z,19.01
2022-08-22T06:44:35.452Z,19.09
2022-08-22T06:45:40.683Z,19.16
2022-08-22T06:46:47.754Z,19.23
2022-08-22T06:47:53.792Z,19.28
2022-08-22T06:49:00.224Z,19.37
2022-08-22T06:50:30.952Z,19.44
2022-08-22T06:51:38.033Z,19.55
2022-08-22T06:52:57.500Z,19.67
2022-08-22T06:54:05.123Z,19.75
2022-08-22T06:55:09.631Z,19.77
2022-08-22T06:56:18.483Z,19.79
2022-08-22T06:57:34.044Z,19.84
2022-08-22T06:58:46.252Z,19.88
2022-08-22T06:59:49.351Z,19.92
2022-08-22T07:01:12.364Z,19.98
2022-08-22T07:02:29.325Z,20.06
2022-08-22T07:03:36.478Z,20.14
2022-08-22T07:04:38.789Z,20.22
2022-08-22T07:05:43.338Z,20.30
2022-08-22T07:06:51.360Z,20.40
2022-08-22T07:07:53.184Z,20.45
2022-08-22T07:08:55.895Z,20.53
2022-08-22T07:09:57.862Z,20.63
2022-08-22T07:11:14.356Z,20.72
2022-08-22T07:12:20.935Z,20.83
2022-08-22T07:13:28.217Z,20.94
2022-08-22T07:14:40.826Z,21.06
2022-08-22T07:15:43.409Z,21.14
2022-08-22T07:16:55.077Z,21.21
2022-08-22T07:18:00.980Z,21.28
2022-08-22T07:19:03.019Z,21.33
2022-08-22T07:20:23.706Z,21.34
2022-08-22T07:21:30.365Z,21.28
2022-08-22T07:22:37.439Z,21.26
2022-08-22T07:23:48.114Z,21.25
2022-08-22T07:24:56.345Z,21.25
2022-08-22T07:26:06.872Z,21.21
2022-08-22T07:27:27.350Z,21.21
2022-08-22T07:28:51.280Z,21.27
2022-08-22T07:30:09.967Z,21.33
2022-08-22T07:31:24.445Z,21.33
2022-08-22T07:32:43.253Z,21.35
2022-08-22T07:33:47.605Z,21.41
2022-08-22T07:35:06.472Z,21.45
2022-08-22T07:36:23.101Z,21.46
2022-08-22T07:37:56.143Z,21.47
2022-08-22T07:39:25.611Z,21.46
2022-08-22T07:40:42.897Z,21.42
2022-08-22T07:42:07.125Z,21.37
2022-08-22T07:43:35.518Z,21.30
2022-08-22T07:44:57.559Z,21.21
2022-08-22T07:46:21.225Z,21.18
2022-08-22T07:47:49.222Z,21.17
2022-08-22T07:49:09.654Z,21.25
2022-08-22T07:50:22.885Z,21.26
2022-08-22T07:51:35.676Z,21.26
2022-08-22T07:52:44.302Z,21.32
2022-08-22T07:54:00.347Z,21.38
2022-08-22T07:55:17.240Z,21.43
2022-08-22T07:56:26.061Z,21.49
2022-08-22T07:57:41.054Z,21.54
2022-08-22T07:58:46.012Z,21.62
2022-08-22T07:59:52.832Z,21.71
2022-08-22T08:00:57.045Z,21.86
2022-08-22T08:02:01.721Z,22.06
2022-08-22T08:03:08.974Z,22.14
2022-08-22T08:04:17.195Z,22.18
2022-08-22T08:05:24.046Z,22.25
2022-08-22T08:06:28.346Z,22.32
2022-08-22T08:07:32.160Z,22.34
2022-08-22T08:08:44.125Z,22.36
2022-08-22T08:10:13.233Z,22.33
2022-08-22T08:11:18.937Z,22.24
2022-08-22T08:12:32.876Z,22.18
2022-08-22T08:13:39.516Z,22.09
2022-08-22T08:14:45.955Z,22.05
2022-08-22T08:15:50.617Z,22.05
2022-08-22T08:17:00.645Z,22.05
2022-08-22T08:18:13.926Z,22.06
2022-08-22T08:19:19.262Z,22.11
2022-08-22T08:20:24.709Z,22.15
2022-08-22T08:21:53.453Z,22.19
2022-08-22T08:22:59.262Z,22.25
2022-08-22T08:24:05.394Z,22.32
2022-08-22T08:25:08.735Z,22.35
2022-08-22T08:26:19.454Z,22.37
2022-08-22T08:27:44.417Z,22.38
2022-08-22T08:28:58.161Z,22.45
2022-08-22T08:30:11.124Z,22.51
2022-08-22T08:31:35.417Z,22.55
2022-08-22T08:32:40.420Z,22.61
2022-08-22T08:33:47.054Z,22.65
2022-08-22T08:34:50.770Z,22.69
2022-08-22T08:36:03.899Z,22.71
2022-08-22T08:37:26.889Z,22.76
2022-08-22T08:38:38.372Z,22.80
2022-08-22T08:39:49.782Z,22.79
2022-08-22T08:41:30.912Z,22.78
2022-08-22T08:43:28.608Z,22.86
2022-08-22T08:44:49.449Z,22.96
2022-08-22T08:46:14.186Z,23.02
2022-08-22T08:47:39.756Z,23.06
2022-08-22T08:48:41.523Z,23.10
2022-08-22T08:50:13.720Z,23.14
2022-08-22T08:51:47.728Z,23.15
2022-08-22T08:53:11.092Z,23.14
2022-08-22T08:54:47.306Z,23.19
2022-08-22T08:56:06.924Z,23.28
2022-08-22T08:57:34.834Z,23.37
2022-08-22T08:59:04.009Z,23.44
2022-08-22T09:00:21.004Z,23.45
2022-08-22T09:01:44.795Z,23.42
2022-08-22T09:02:56.373Z,23.39
2022-08-22T09:04:16.449Z,23.43
2022-08-22T09:05:59.406Z,23.48
2022-08-22T09:07:32.665Z,23.52
2022-08-22T09:08:45.666Z,23.56
2022-08-22T09:10:14.704Z,23.57
2022-08-22T09:11:54.313Z,23.60
2022-08-22T09:13:12.314Z,23.60
2022-08-22T09:14:39.175Z,23.59
2022-08-22T09:15:58.757Z,23.61
2022-08-22T09:17:57.833Z,23.65
2022-08-22T09:19:37.566Z,23.65
2022-08-22T09:21:09.845Z,23.61
2022-08-22T09:22:50.816Z,23.60
2022-08-22T09:24:23.979Z,23.59
2022-08-22T09:25:51.020Z,23.61
2022-08-22T09:27:13.309Z,23.70
2022-08-22T09:28:38.630Z,23.72
2022-08-22T09:29:55.249Z,23.68
2022-08-22T09:31:47.553Z,23.65
2022-08-22T09:33:08.430Z,23.62
2022-08-22T09:34:42.802Z,23.56
2022-08-22T09:36:05.045Z,23.54
2022-08-22T09:37:14.240Z,23.61
2022-08-22T09:38:22.291Z,23.62
2022-08-22T09:40:00.904Z,23.66
2022-08-22T09:41:14.877Z,23.72
2022-08-22T09:42:44.800Z,23.78
2022-08-22T09:44:05.906Z,23.89
2022-08-22T09:45:07.510Z,23.96
2022-08-22T09:46:31.608Z,24.03
2022-08-22T09:47:58.282Z,24.24
2022-08-22T09:49:33.590Z,24.51
2022-08-22T09:50:52.742Z,24.66
2022-08-22T09:52:33.197Z,24.63
2022-08-22T09:53:49.649Z,24.52
2022-08-22T09:55:07.987Z,24.44
2022-08-22T09:56:26.167Z,24.35
2022-08-22T09:58:23.547Z,24.23
2022-08-22T09:59:31.663Z,24.10
2022-08-22T10:00:54.608Z,24.08
2022-08-22T10:02:16.387Z,24.06
2022-08-22T10:03:30.471Z,24.06
2022-08-22T10:04:56.766Z,24.00
2022-08-22T10:06:14.275Z,23.95
2022-08-22T10:07:37.575Z,23.98
2022-08-22T10:09:06.050Z,24.10
2022-08-22T10:10:32.342Z,24.25
2022-08-22T10:12:05.081Z,24.34
2022-08-22T10:13:32.843Z,24.41
2022-08-22T10:15:13.570Z,24.33
2022-08-22T10:16:19.986Z,24.08
2022-08-22T10:17:40.969Z,23.94
2022-08-22T10:18:53.710Z,23.82
2022-08-22T10:20:24.901Z,23.78
2022-08-22T10:22:06.777Z,23.74
2022-08-22T10:23:35.649Z,23.71
2022-08-22T10:24:58.645Z,23.64
2022-08-22T10:26:29.067Z,23.59
2022-08-22T10:28:10.469Z,23.54
2022-08-22T10:29:49.263Z,23.59
2022-08-22T10:31:18.062Z,23.58
2022-08-22T10:32:36.314Z,23.52
2022-08-22T10:34:03.072Z,23.46
2022-08-22T10:35:28.535Z,23.35
2022-08-22T10:36:45.076Z,23.21
2022-08-22T10:38:03.904Z,23.16
2022-08-22T10:39:11.924Z,23.09
2022-08-22T10:40:27.717Z,23.02
2022-08-22T10:41:39.380Z,22.97
2022-08-22T10:42:53.985Z,22.95
2022-08-22T10:44:17.164Z,22.95
2022-08-22T10:45:35.633Z,22.88
2022-08-22T10:46:44.566Z,22.80
2022-08-22T10:47:58.155Z,22.74
2022-08-22T10:49:10.609Z,22.67
2022-08-22T10:50:31.040Z,22.59
2022-08-22T10:51:45.934Z,22.53
2022-08-22T10:53:26.453Z,22.49
2022-08-22T10:54:37.613Z,22.47
2022-08-22T10:55:44.385Z,22.45
2022-08-22T10:57:29.282Z,22.43
2022-08-22T10:58:50.649Z,22.43
2022-08-22T11:00:31.122Z,22.44
2022-08-22T11:01:45.270Z,22.48
2022-08-22T11:03:20.005Z,22.51
2022-08-22T11:04:42.414Z,22.56
2022-08-22T11:05:50.612Z,22.62
2022-08-22T11:07:39.490Z,22.69
2022-08-22T11:09:12.829Z,22.84
2022-08-22T11:10:29.417Z,23.01
2022-08-22T11:11:32.474Z,23.14
2022-08-22T11:12:48.486Z,23.23
2022-08-22T11:14:17.346Z,23.29
2022-08-22T11:15:47.490Z,23.33
2022-08-22T11:17:31.008Z,23.29
2022-08-22T11:19:02.748Z,23.30
2022-08-22T11:20:16.602Z,23.30
2022-08-22T11:21:46.976Z,23.24
2022-08-22T11:23:08.065Z,23.16
2022-08-22T11:24:34.922Z,23.06
2022-08-22T11:25:46.706Z,22.97
2022-08-22T11:27:40.200Z,22.91
2022-08-22T11:29:13.463Z,22.84
2022-08-22T11:30:26.034Z,22.75
2022-08-22T11:31:51.562Z,22.70
2022-08-22T11:33:14.974Z,22.64
2022-08-22T11:34:38.802Z,22.56
2022-08-22T11:35:54.750Z,22.50
2022-08-22T11:37:42.549Z,22.46
2022-08-22T11:38:52.692Z,22.40
2022-08-22T11:40:22.497Z,22.38
2022-08-22T11:41:38.065Z,22.38
2022-08-22T11:42:49.291Z,22.38
2022-08-22T11:44:05.850Z,22.39
2022-08-22T11:45:19.750Z,22.41
2022-08-22T11:46:38.511Z,22.46
2022-08-22T11:47:56.398Z,22.50
2022-08-22T11:49:27.056Z,22.52
2022-08-22T11:50:44.296Z,22.57
2022-08-22T11:52:11.008Z,22.62
2022-08-22T11:53:38.729Z,22.68
2022-08-22T11:55:16.871Z,22.70
2022-08-22T11:56:34.890Z,22.75
2022-08-22T11:57:53.301Z,22.81
2022-08-22T11:59:14.128Z,22.90
2022-08-22T12:00:28.122Z,22.99
2022-08-22T12:01:59.571Z,23.08
2022-08-22T12:03:23.318Z,23.15
2022-08-22T12:04:44.175Z,23.20
2022-08-22T12:05:50.174Z,23.26
2022-08-22T12:06:59.313Z,23.33
2022-08-22T12:08:46.379Z,23.40
2022-08-22T12:10:02.634Z,23.50
2022-08-22T12:11:19.462Z,23.65
2022-08-22T12:12:55.342Z,23.90
2022-08-22T12:14:06.863Z,24.41
2022-08-22T12:15:29.395Z,24.75
2022-08-22T12:17:03.603Z,25.13
2022-08-22T12:18:33.403Z,25.27
2022-08-22T12:20:17.050Z,25.32
2022-08-22T12:21:38.627Z,25.31
2022-08-22T12:23:18.695Z,25.32
2022-08-22T12:24:53.555Z,25.55
2022-08-22T12:26:11.052Z,25.57
2022-08-22T12:27:29.199Z,25.46
2022-08-22T12:29:01.764Z,25.24
2022-08-22T12:30:26.218Z,25.08
2022-08-22T12:31:27.817Z,25.08
2022-08-22T12:33:05.833Z,25.15
2022-08-22T12:34:23.257Z,25.27
2022-08-22T12:35:44.540Z,25.34
2022-08-22T12:37:29.924Z,25.27
2022-08-22T12:38:57.036Z,25.24
2022-08-22T12:40:36.396Z,25.53
2022-08-22T12:42:06.258Z,26.07
2022-08-22T12:43:28.900Z,26.51
2022-08-22T12:44:50.482Z,26.64
2022-08-22T12:46:13.176Z,26.58
2022-08-22T12:47:24.153Z,26.46
2022-08-22T12:48:42.537Z,26.34
2022-08-22T12:50:04.805Z,26.49
2022-08-22T12:51:26.880Z,26.72
2022-08-22T12:53:03.489Z,26.82
2022-08-22T12:54:40.997Z,26.97
2022-08-22T12:56:03.326Z,27.04
2022-08-22T12:57:23.696Z,27.03
2022-08-22T12:59:01.618Z,27.00
2022-08-22T13:00:31.840Z,27.26
2022-08-22T13:01:43.611Z,27.59
2022-08-22T13:02:50.526Z,27.87
2022-08-22T13:04:04.646Z,28.10
2022-08-22T13:05:40.706Z,28.28
2022-08-22T13:06:54.198Z,28.45
2022-08-22T13:08:04.611Z,28.41
2022-08-22T13:09:28.854Z,28.09
2022-08-22T13:10:45.234Z,27.80
2022-08-22T13:11:52.525Z,27.68
2022-08-22T13:12:59.138Z,27.60
2022-08-22T13:14:02.755Z,27.76
2022-08-22T13:15:31.208Z,28.00
2022-08-22T13:16:49.010Z,28.21
2022-08-22T13:17:54.779Z,27.98
2022-08-22T13:19:13.383Z,27.66
2022-08-22T13:20:31.314Z,27.36
2022-08-22T13:21:42.761Z,27.20
2022-08-22T13:22:45.877Z,27.40
2022-08-22T13:23:55.769Z,27.63
2022-08-22T13:25:25.815Z,27.89
2022-08-22T13:26:34.384Z,28.12
2022-08-22T13:27:51.078Z,28.27
2022-08-22T13:29:24.025Z,28.25
2022-08-22T13:30:32.315Z,28.16
2022-08-22T13:31:41.558Z,28.19
2022-08-22T13:32:51.068Z,28.37
2022-08-22T13:34:03.165Z,28.64
2022-08-22T13:35:09.712Z,28.88
2022-08-22T13:36:19.875Z,29.05
2022-08-22T13:37:28.890Z,29.17
2022-08-22T13:38:46.388Z,29.23
2022-08-22T13:39:53.613Z,29.23
2022-08-22T13:41:02.010Z,29.16
2022-08-22T13:42:07.622Z,29.10
2022-08-22T13:43:24.054Z,29.14
2022-08-22T13:44:37.553Z,29.24
2022-08-22T13:45:54.158Z,29.40
2022-08-22T13:47:24.468Z,29.33
2022-08-22T13:48:46.788Z,28.83
2022-08-22T13:50:12.592Z,28.53
2022-08-22T13:51:44.699Z,28.55
2022-08-22T13:52:58.100Z,28.77
2022-08-22T13:54:23.143Z,28.93
2022-08-22T13:55:55.305Z,29.10
2022-08-22T13:57:11.521Z,29.30
2022-08-22T13:58:34.938Z,29.42
2022-08-22T13:59:52.487Z,29.60
2022-08-22T14:01:15.027Z,29.76
2022-08-22T14:02:44.161Z,29.61
2022-08-22T14:03:57.568Z,29.60
2022-08-22T14:05:21.005Z,29.51
2022-08-22T14:06:56.645Z,29.51
2022-08-22T14:08:25.848Z,29.52
2022-08-22T14:09:53.325Z,29.51
2022-08-22T14:11:30.876Z,29.58
2022-08-22T14:12:50.066Z,29.54
2022-08-22T14:14:01.236Z,29.61
2022-08-22T14:15:07.917Z,29.52
2022-08-22T14:16:41.907Z,29.45
2022-08-22T14:17:48.350Z,29.42
2022-08-22T14:19:06.132Z,29.06
2022-08-22T14:20:32.668Z,28.55
2022-08-22T14:21:40.944Z,28.02
2022-08-22T14:22:58.955Z,27.66
2022-08-22T14:24:10.176Z,27.21
2022-08-22T14:25:26.623Z,26.85
2022-08-22T14:26:37.484Z,26.53
2022-08-22T14:27:57.972Z,26.31
2022-08-22T14:29:05.401Z,26.12
2022-08-22T14:30:22.243Z,25.93
2022-08-22T14:31:28.438Z,25.73
2022-08-22T14:32:43.105Z,25.60
2022-08-22T14:33:53.322Z,25.48
2022-08-22T14:35:03.501Z,25.39
2022-08-22T14:36:35.749Z,25.26
2022-08-22T14:37:43.652Z,25.03
2022-08-22T14:39:04.708Z,24.88
2022-08-22T14:40:24.624Z,24.70
2022-08-22T14:41:56.172Z,24.49
2022-08-22T14:43:23.907Z,24.35
2022-08-22T14:44:38.710Z,24.25
2022-08-22T14:45:54.109Z,24.21
2022-08-22T14:47:32.240Z,24.19
2022-08-22T14:48:40.929Z,24.20
2022-08-22T14:49:54.454Z,24.23
2022-08-22T14:51:10.115Z,24.24
2022-08-22T14:52:29.580Z,24.40
2022-08-22T14:53:37.437Z,24.72
2022-08-22T14:54:42.659Z,25.04
2022-08-22T14:56:00.062Z,25.33
2022-08-22T14:57:10.194Z,25.66
2022-08-22T14:58:26.438Z,25.99
2022-08-22T14:59:52.271Z,26.32
2022-08-22T15:00:57.682Z,26.44
2022-08-22T15:02:10.077Z,26.32
2022-08-22T15:03:23.461Z,26.26
2022-08-22T15:04:35.605Z,26.03
2022-08-22T15:05:45.546Z,25.79
2022-08-22T15:06:58.837Z,25.73
2022-08-22T15:08:00.846Z,25.96
2022-08-22T15:09:32.749Z,26.17
2022-08-22T15:10:37.341Z,26.56
2022-08-22T15:11:48.895Z,26.83
2022-08-22T15:12:55.818Z,27.13
2022-08-22T15:14:00.475Z,27.42
2022-08-22T15:15:14.266Z,27.46
2022-08-22T15:16:20.857Z,27.34
2022-08-22T15:17:39.772Z,27.29
2022-08-22T15:18:51.773Z,27.17
2022-08-22T15:19:53.950Z,27.07
2022-08-22T15:21:11.292Z,26.84
2022-08-22T15:22:27.677Z,26.60
2022-08-22T15:23:31.982Z,26.48
2022-08-22T15:24:39.434Z,26.60
2022-08-22T15:25:56.193Z,26.77
2022-08-22T15:26:59.235Z,26.90
2022-08-22T15:28:20.320Z,26.88
2022-08-22T15:29:31.231Z,26.84
2022-08-22T15:30:38.605Z,26.83
2022-08-22T15:31:51.949Z,26.81
2022-08-22T15:33:07.588Z,26.73
2022-08-22T15:34:13.966Z,26.71
2022-08-22T15:35:32.145Z,26.69
2022-08-22T15:36:33.957Z,26.68
2022-08-22T15:38:02.644Z,26.71
2022-08-22T15:39:27.699Z,26.75
2022-08-22T15:40:40.406Z,26.84
2022-08-22T15:41:48.649Z,26.93
2022-08-22T15:42:53.964Z,26.97
2022-08-22T15:44:35.027Z,26.98
2022-08-22T15:45:39.715Z,27.10
2022-08-22T15:46:59.842Z,27.12
2022-08-22T15:48:08.856Z,27.12
2022-08-22T15:49:19.700Z,27.13
2022-08-22T15:50:35.908Z,27.13
2022-08-22T15:51:46.414Z,27.19
2022-08-22T15:53:08.691Z,27.26
2022-08-22T15:54:25.284Z,27.11
2022-08-22T15:55:28.644Z,26.86
2022-08-22T15:56:39.939Z,26.66
2022-08-22T15:58:00.033Z,26.41
2022-08-22T15:59:29.894Z,26.12
2022-08-22T16:01:20.079Z,25.75
2022-08-22T16:02:35.741Z,25.47
2022-08-22T16:03:52.452Z,25.43
2022-08-22T16:05:14.154Z,25.34
2022-08-22T16:06:40.376Z,25.28
2022-08-22T16:07:51.392Z,25.12
2022-08-22T16:08:55.585Z,24.97
2022-08-22T16:10:00.549Z,24.94
2022-08-22T16:11:02.326Z,24.92
2022-08-22T16:12:10.813Z,24.90
2022-08-22T16:13:15.407Z,24.83
2022-08-22T16:14:22.916Z,24.75
2022-08-22T16:15:55.763Z,24.61
2022-08-22T16:17:26.756Z,24.36
2022-08-22T16:18:34.274Z,24.10
2022-08-22T16:19:39.562Z,23.92
2022-08-22T16:20:50.634Z,23.78
2022-08-22T16:21:52.187Z,23.66
2022-08-22T16:22:57.136Z,23.53
2022-08-22T16:23:58.823Z,23.43
2022-08-22T16:25:05.966Z,23.34
2022-08-22T16:26:11.081Z,23.27
2022-08-22T16:27:24.657Z,23.19
2022-08-22T16:28:57.387Z,23.12
2022-08-22T16:30:07.298Z,23.07
2022-08-22T16:31:25.386Z,23.01
2022-08-22T16:32:28.553Z,22.94
2022-08-22T16:33:39.113Z,22.89
2022-08-22T16:34:45.701Z,22.86
2022-08-22T16:36:15.357Z,22.83
2022-08-22T16:37:43.045Z,22.77
2022-08-22T16:38:51.199Z,22.72
2022-08-22T16:39:59.131Z,22.69
2022-08-22T16:41:01.639Z,22.66
2022-08-22T16:42:24.364Z,22.62
2022-08-22T16:43:28.787Z,22.55
2022-08-22T16:44:30.669Z,22.53
2022-08-22T16:45:45.474Z,22.52
2022-08-22T16:46:51.602Z,22.48
2022-08-22T16:47:58.553Z,22.46
2022-08-22T16:49:01.936Z,22.43
2022-08-22T16:50:15.970Z,22.40
2022-08-22T16:51:18.725Z,22.35
2022-08-22T16:52:20.959Z,22.31
2022-08-22T16:53:28.293Z,22.27
2022-08-22T16:55:07.282Z,22.23